Time;durP1;ratioP1;P1;durP2;ratioP2;P2;SDS_P1;SDS_P2;PMS_P1;PMS_P2;Temp;Humidity;BMP_temperature;BMP_pressure;BME280_temperature;BME280_humidity;BME280_pressure;Samples;Min_cycle;Max_cycle;Signal;HPM_P1;HPM_P2
2021/09/08 00:01:55;;;;;;;35.50;21.75;;;;;;;11.40;78.33;101349.66;1709871;83;21043;-77
2021/09/08 00:04:21;;;;;;;36.13;22.15;;;;;;;11.37;78.37;101349.96;1710645;83;21056;-78
2021/09/08 00:06:47;;;;;;;30.57;22.32;;;;;;;11.34;78.42;101343.59;1710619;83;21007;-78
2021/09/08 00:09:13;;;;;;;35.30;23.47;;;;;;;11.33;78.45;101342.42;1710501;83;21035;-77
2021/09/08 00:11:39;;;;;;;36.40;23.10;;;;;;;11.31;78.50;101345.23;1711004;83;21453;-78
2021/09/08 00:14:05;;;;;;;34.67;23.07;;;;;;;11.30;78.53;101346.22;1710358;82;21469;-78
2021/09/08 00:16:31;;;;;;;33.40;22.22;;;;;;;11.30;78.59;101342.70;1710782;83;21178;-78
2021/09/08 00:18:57;;;;;;;36.40;23.50;;;;;;;11.27;78.63;101345.19;1710220;84;21044;-78
2021/09/08 00:21:23;;;;;;;35.23;23.57;;;;;;;11.25;78.65;101351.19;1710740;83;21087;-78
2021/09/08 00:23:49;;;;;;;37.42;23.35;;;;;;;11.22;78.69;101347.98;1710558;83;21004;-77
2021/09/08 00:26:15;;;;;;;33.13;22.40;;;;;;;11.21;78.72;101349.81;1710440;83;21028;-78
2021/09/08 00:28:41;;;;;;;34.05;21.82;;;;;;;11.19;78.76;101350.95;1710661;83;21057;-78
2021/09/08 00:31:07;;;;;;;39.03;24.35;;;;;;;11.16;78.80;101357.41;1710564;83;21504;-78
2021/09/08 00:33:33;;;;;;;41.53;25.52;;;;;;;11.13;78.83;101357.72;1710683;82;21016;-78
2021/09/08 00:35:59;;;;;;;41.88;24.02;;;;;;;11.11;78.87;101355.70;1710394;84;21474;-78
2021/09/08 00:38:25;;;;;;;41.92;26.25;;;;;;;11.11;78.91;101358.38;1716515;82;21022;-78
2021/09/08 00:40:55;;;;;;;40.98;25.00;;;;;;;11.09;78.95;101357.67;1740218;82;21130;-78
2021/09/08 00:43:22;;;;;;;42.20;24.30;;;;;;;11.08;78.97;101356.02;1740278;82;21034;-78
2021/09/08 00:45:53;;;;;;;38.60;23.80;;;;;;;11.08;79.04;101350.67;1739912;82;21073;-78
2021/09/08 00:48:19;;;;;;;40.85;25.15;;;;;;;11.08;79.06;101349.34;1740179;81;21010;-78
2021/09/08 00:50:46;;;;;;;34.45;23.83;;;;;;;11.07;79.10;101352.98;1739803;80;21080;-78
2021/09/08 00:53:12;;;;;;;36.33;24.85;;;;;;;11.07;79.14;101347.65;1773905;80;21164;-78
2021/09/08 00:55:38;;;;;;;36.90;23.20;;;;;;;11.07;79.18;101348.98;1773814;80;21031;-78
2021/09/08 00:58:04;;;;;;;39.92;23.70;;;;;;;11.06;79.21;101349.96;1767653;80;20990;-78
2021/09/08 01:00:30;;;;;;;35.83;23.32;;;;;;;11.06;79.26;101344.63;1741479;81;21030;-78
2021/09/08 01:02:56;;;;;;;36.38;24.60;;;;;;;11.05;79.28;101346.94;1765806;81;21101;-78
2021/09/08 01:05:24;;;;;;;40.80;23.92;;;;;;;11.04;79.31;101353.30;1757204;81;21125;-78
2021/09/08 01:07:50;;;;;;;37.08;24.40;;;;;;;11.02;79.33;101348.58;1709568;82;21428;-78
2021/09/08 01:10:16;;;;;;;38.40;25.00;;;;;;;11.00;79.37;101348.74;1709865;82;20996;-78
2021/09/08 01:12:42;;;;;;;37.42;25.10;;;;;;;11.00;79.40;101349.23;1710115;82;21008;-78
2021/09/08 01:15:09;;;;;;;36.90;24.32;;;;;;;10.98;79.43;101344.03;1708051;84;21056;-78
2021/09/08 01:17:35;;;;;;;45.15;25.23;;;;;;;10.98;79.46;101348.53;1708099;84;21345;-78
2021/09/08 01:20:01;;;;;;;54.80;33.30;;;;;;;10.97;79.53;101348.20;1708113;84;21049;-78
2021/09/08 01:22:30;;;;;;;42.30;29.25;;;;;;;10.96;79.55;101344.69;1708125;84;21469;-78
2021/09/08 01:24:57;;;;;;;42.03;27.30;;;;;;;10.95;79.56;101344.33;1708280;84;21020;-78
2021/09/08 01:27:24;;;;;;;40.43;26.87;;;;;;;10.94;79.60;101341.31;1707978;82;21065;-78
2021/09/08 01:29:50;;;;;;;36.93;25.50;;;;;;;10.92;79.63;101338.45;1708102;84;21141;-78
2021/09/08 01:32:16;;;;;;;36.40;25.05;;;;;;;10.91;79.64;101344.77;1707804;84;21519;-78
2021/09/08 01:34:42;;;;;;;39.70;24.27;;;;;;;10.90;79.67;101337.29;1733655;82;21472;-78
2021/09/08 01:37:10;;;;;;;37.73;24.57;;;;;;;10.89;79.71;101341.42;1722462;82;21009;-78
2021/09/08 01:39:36;;;;;;;35.38;24.85;;;;;;;10.87;79.75;101338.08;1708091;83;21020;-78
2021/09/08 01:42:02;;;;;;;35.60;24.80;;;;;;;10.84;79.81;101340.53;1707842;84;21713;-78
2021/09/08 01:44:28;;;;;;;34.95;23.60;;;;;;;10.84;79.82;101340.53;1708019;84;20984;-78
2021/09/08 01:46:56;;;;;;;37.35;24.65;;;;;;;10.82;79.85;101332.34;1708247;84;21547;-78
2021/09/08 01:49:22;;;;;;;33.70;24.25;;;;;;;10.80;79.88;101333.80;1708008;84;21016;-78
2021/09/08 01:51:48;;;;;;;42.50;26.65;;;;;;;10.80;79.92;101337.80;1708064;84;21040;-78
2021/09/08 01:54:14;;;;;;;46.05;31.62;;;;;;;10.78;79.93;101331.80;1707941;84;21056;-78
2021/09/08 01:56:41;;;;;;;37.45;27.60;;;;;;;10.76;79.95;101330.27;1708220;82;21485;-77
2021/09/08 01:59:07;;;;;;;39.73;25.82;;;;;;;10.76;79.98;101327.60;1713006;83;21505;-78
2021/09/08 02:01:33;;;;;;;41.48;25.40;;;;;;;10.74;80.01;101329.56;1712937;83;21050;-78
2021/09/08 02:03:59;;;;;;;41.02;26.82;;;;;;;10.73;80.02;101326.56;1713318;83;21033;-78
2021/09/08 02:06:26;;;;;;;39.90;26.52;;;;;;;10.73;80.05;101327.38;1713155;83;21138;-78
2021/09/08 02:08:58;;;;;;;39.03;26.60;;;;;;;10.69;80.08;101324.69;1696562;83;21014;-78
2021/09/08 02:11:25;;;;;;;41.73;26.17;;;;;;;10.70;80.10;101327.68;1712976;83;21056;-78
2021/09/08 02:13:52;;;;;;;42.08;27.40;;;;;;;10.68;80.11;101330.16;1713109;83;20982;-77
2021/09/08 02:16:20;;;;;;;47.75;29.77;;;;;;;10.66;80.14;101332.15;1713164;83;21021;-77
2021/09/08 02:18:48;;;;;;;44.93;29.37;;;;;;;10.64;80.16;101320.77;1712776;83;22124;-78
2021/09/08 02:21:14;;;;;;;49.95;29.10;;;;;;;10.62;80.19;101326.27;1713192;83;20959;-78
2021/09/08 02:23:40;;;;;;;41.18;28.52;;;;;;;10.61;80.23;101329.91;1685849;83;21482;-77
2021/09/08 02:26:06;;;;;;;46.28;28.73;;;;;;;10.58;80.27;101321.37;1695099;84;21656;-77
2021/09/08 02:28:32;;;;;;;54.23;33.18;;;;;;;10.55;80.30;101320.33;1687503;83;21573;-77
2021/09/08 02:30:58;;;;;;;42.95;29.02;;;;;;;10.54;80.32;101320.82;1678170;84;21986;-78
2021/09/08 02:33:24;;;;;;;42.43;28.77;;;;;;;10.55;80.35;101326.52;1717630;83;20902;-77
2021/09/08 02:35:50;;;;;;;43.52;28.32;;;;;;;10.55;80.36;101320.33;1675104;85;20962;-78
2021/09/08 02:38:17;;;;;;;43.13;28.42;;;;;;;10.55;80.36;101320.33;1685188;85;21021;-77
2021/09/08 02:40:42;;;;;;;39.27;25.55;;;;;;;10.53;80.42;101311.97;1684657;85;21029;-78
2021/09/08 02:43:09;;;;;;;39.30;25.68;;;;;;;10.51;80.46;101315.78;1685055;85;21093;-78
2021/09/08 02:45:35;;;;;;;39.90;25.80;;;;;;;10.47;80.49;101315.23;1684831;85;20993;-78
2021/09/08 02:48:01;;;;;;;39.40;25.97;;;;;;;10.47;80.54;101313.91;1686580;83;21473;-78
2021/09/08 02:50:27;;;;;;;38.08;25.72;;;;;;;10.46;80.59;101314.88;1684531;85;21009;-78
2021/09/08 02:52:53;;;;;;;34.88;24.85;;;;;;;10.42;80.63;101320.16;1678064;85;21081;-78
2021/09/08 02:55:19;;;;;;;36.00;24.87;;;;;;;10.42;80.67;101320.16;1684493;85;21180;-78
2021/09/08 02:57:45;;;;;;;37.45;25.85;;;;;;;10.41;80.71;101313.66;1677328;83;21606;-77
2021/09/08 03:00:13;;;;;;;39.78;25.55;;;;;;;10.41;80.74;101315.80;1724130;82;21036;-78
2021/09/08 03:02:39;;;;;;;36.95;26.00;;;;;;;10.43;80.74;101316.52;1758598;80;20982;-78
2021/09/08 03:05:06;;;;;;;36.53;26.33;;;;;;;10.42;80.79;101320.16;1713961;83;21018;-77
2021/09/08 03:07:32;;;;;;;40.75;25.65;;;;;;;10.42;80.85;101313.98;1713871;83;21298;-77
2021/09/08 03:09:58;;;;;;;35.05;25.30;;;;;;;10.42;80.88;101316.16;1713832;83;21077;-77
2021/09/08 03:12:24;;;;;;;37.17;24.67;;;;;;;10.41;80.92;101318.47;1728863;83;21083;-77
2021/09/08 03:14:50;;;;;;;35.30;25.43;;;;;;;10.41;80.95;101315.80;1713663;82;21040;-77
2021/09/08 03:17:16;;;;;;;34.70;25.00;;;;;;;10.41;80.98;101318.47;1714349;82;21059;-77
2021/09/08 03:19:42;;;;;;;44.77;31.15;;;;;;;10.41;81.00;101315.80;1713234;82;21030;-77
2021/09/08 03:22:09;;;;;;;113.28;60.63;;;;;;;10.39;81.02;101315.13;1684650;85;21064;-77
2021/09/08 03:24:35;;;;;;;159.35;86.42;;;;;;;10.40;81.05;101319.48;1713700;83;21462;-77
2021/09/08 03:27:01;;;;;;;72.00;41.90;;;;;;;10.39;81.07;101312.45;1708142;84;21003;-77
2021/09/08 03:29:27;;;;;;;103.17;56.13;;;;;;;10.41;81.11;101320.32;1729107;82;21049;-77
2021/09/08 03:31:53;;;;;;;73.57;43.30;;;;;;;10.39;81.11;101315.13;1737366;82;21167;-77
2021/09/08 03:34:19;;;;;;;57.83;36.55;;;;;;;10.38;81.15;101316.59;1717237;82;21008;-77
2021/09/08 03:36:45;;;;;;;44.33;27.48;;;;;;;10.35;81.20;101319.06;1707990;84;21011;-77
2021/09/08 03:39:11;;;;;;;44.03;27.87;;;;;;;10.32;81.20;101319.36;1707979;84;21051;-77
2021/09/08 03:41:37;;;;;;;40.28;26.87;;;;;;;10.30;81.23;101317.34;1708053;84;20912;-77
2021/09/08 03:44:03;;;;;;;42.33;27.05;;;;;;;10.29;81.27;101318.31;1707958;84;21131;-77
2021/09/08 03:46:29;;;;;;;45.10;28.40;;;;;;;10.28;81.27;101318.45;1716210;82;21062;-77
2021/09/08 03:48:55;;;;;;;43.58;27.62;;;;;;;10.28;81.29;101319.30;1737568;82;21017;-77
2021/09/08 03:51:21;;;;;;;37.53;27.48;;;;;;;10.27;81.30;101318.97;1737590;82;21140;-78
2021/09/08 03:53:48;;;;;;;36.83;25.88;;;;;;;10.25;81.33;101319.59;1737406;82;21010;-78
2021/09/08 03:56:14;;;;;;;54.50;30.50;;;;;;;10.22;81.37;101322.55;1735597;82;21175;-77
2021/09/08 03:58:40;;;;;;;50.70;30.05;;;;;;;10.22;81.41;101325.22;1733151;82;20990;-77
2021/09/08 04:01:06;;;;;;;48.63;29.45;;;;;;;10.21;81.42;101327.53;1740464;82;21057;-77
2021/09/08 04:03:32;;;;;;;51.68;30.27;;;;;;;10.20;81.46;101329.02;1737807;82;20879;-78
2021/09/08 04:05:58;;;;;;;45.17;28.77;;;;;;;10.19;81.49;101324.17;1740320;82;21050;-77
2021/09/08 04:08:24;;;;;;;48.63;28.38;;;;;;;10.19;81.54;101330.84;1716112;82;21017;-78
2021/09/08 04:10:50;;;;;;;52.70;28.87;;;;;;;10.16;81.54;101324.47;1729407;83;21487;-78
2021/09/08 04:13:17;;;;;;;41.10;28.90;;;;;;;10.16;81.57;101321.80;1729939;82;21671;-78
2021/09/08 04:15:43;;;;;;;45.28;26.62;;;;;;;10.14;81.57;101321.09;1713883;83;21026;-78
2021/09/08 04:18:09;;;;;;;48.90;26.87;;;;;;;10.14;81.59;101322.88;1714029;83;21014;-78
2021/09/08 04:20:35;;;;;;;43.85;26.20;;;;;;;10.15;81.62;101325.45;1713843;83;21103;-77
2021/09/08 04:23:01;;;;;;;51.10;27.45;;;;;;;10.15;81.66;101324.11;1714533;82;21011;-77
2021/09/08 04:25:27;;;;;;;41.00;25.82;;;;;;;10.16;81.67;101329.80;1742410;82;21006;-78
2021/09/08 04:27:53;;;;;;;40.12;26.00;;;;;;;10.16;81.69;101326.30;1743563;82;21691;-77
2021/09/08 04:30:19;;;;;;;42.40;26.95;;;;;;;10.16;81.71;101324.47;1743875;82;20942;-78
2021/09/08 04:32:45;;;;;;;44.98;25.43;;;;;;;10.17;81.73;101327.98;1742693;82;21127;-78
2021/09/08 04:35:11;;;;;;;35.75;25.23;;;;;;;10.17;81.73;101333.31;1714097;82;20975;-78
2021/09/08 04:37:37;;;;;;;37.88;25.25;;;;;;;10.20;81.86;101323.20;1713582;83;21005;-78
2021/09/08 04:40:05;;;;;;;38.05;25.75;;;;;;;10.20;81.86;101323.20;1713802;83;21112;-77
2021/09/08 04:42:31;;;;;;;38.83;25.75;;;;;;;10.24;81.77;101325.90;1715960;82;21743;-78
2021/09/08 04:44:57;;;;;;;39.63;25.85;;;;;;;10.29;81.78;101324.98;1714108;83;21891;-78
2021/09/08 04:47:23;;;;;;;45.63;26.57;;;;;;;10.37;81.82;101318.92;1714047;83;20997;-77
2021/09/08 04:49:49;;;;;;;47.03;26.93;;;;;;;10.45;81.83;101322.53;1713993;83;21017;-78
2021/09/08 04:52:15;;;;;;;48.50;29.15;;;;;;;10.76;81.98;101311.59;1714119;83;21073;-78
2021/09/08 04:54:41;;;;;;;47.40;29.48;;;;;;;11.34;82.08;101315.55;1741536;82;21673;-78
2021/09/08 04:57:07;;;;;;;41.92;28.10;;;;;;;11.92;82.02;101313.74;1743421;82;21219;-78
2021/09/08 04:59:34;;;;;;;37.65;25.75;;;;;;;12.45;81.89;101314.38;1735062;82;20998;-78
2021/09/08 05:02:00;;;;;;;34.83;23.70;;;;;;;12.99;81.74;101313.59;1756796;81;20990;-77
2021/09/08 05:04:26;;;;;;;35.00;22.75;;;;;;;13.48;81.58;101311.37;1742990;82;21037;-78
2021/09/08 05:06:52;;;;;;;30.08;22.35;;;;;;;13.95;81.45;101316.91;1756802;81;20990;-78
2021/09/08 05:09:18;;;;;;;31.35;23.45;;;;;;;14.32;81.26;101316.33;1737921;82;21600;-78
2021/09/08 05:11:44;;;;;;;40.50;20.92;;;;;;;14.70;80.99;101313.91;1704713;84;20997;-79
2021/09/08 05:14:10;;;;;;;35.88;21.77;;;;;;;15.11;80.68;101306.47;1697737;83;21532;-78
2021/09/08 05:16:36;;;;;;;32.10;21.10;;;;;;;15.46;80.35;101310.77;1726873;82;21639;-78
2021/09/08 05:19:02;;;;;;;31.65;21.12;;;;;;;15.84;79.99;101306.78;1714203;83;21050;-78
2021/09/08 05:21:28;;;;;;;33.83;23.35;;;;;;;16.53;78.71;101292.62;1704718;84;21135;-78
2021/09/08 05:23:54;;;;;;;31.77;21.07;;;;;;;16.53;78.71;101292.62;1697568;84;20929;-78
2021/09/08 05:26:20;;;;;;;36.48;22.35;;;;;;;16.88;78.72;101309.38;1726889;83;20969;-79
2021/09/08 05:28:46;;;;;;;31.27;21.82;;;;;;;16.83;77.90;101310.44;1714138;83;21065;-78
2021/09/08 05:31:12;;;;;;;40.40;23.65;;;;;;;16.65;77.49;101315.37;1704861;84;20982;-79
2021/09/08 05:33:38;;;;;;;38.30;22.30;;;;;;;16.32;77.44;101315.74;1708969;83;21139;-78
2021/09/08 05:36:05;;;;;;;33.48;22.37;;;;;;;16.06;77.51;101312.63;1743756;82;21552;-79
2021/09/08 05:38:31;;;;;;;34.95;23.60;;;;;;;15.98;77.56;101315.39;1740652;81;21046;-78
2021/09/08 05:40:57;;;;;;;37.33;23.00;;;;;;;15.92;77.54;101310.75;1714300;83;21065;-79
2021/09/08 05:43:23;;;;;;;52.08;23.83;;;;;;;15.94;77.57;101315.42;1696828;83;21069;-79
2021/09/08 05:45:49;;;;;;;37.42;23.52;;;;;;;15.97;77.48;101313.75;1694594;83;21105;-78
2021/09/08 05:48:15;;;;;;;34.40;22.70;;;;;;;16.00;77.37;101313.38;1731775;82;21045;-78
2021/09/08 05:50:41;;;;;;;36.00;22.77;;;;;;;16.11;77.27;101316.97;1707586;83;21037;-78
2021/09/08 05:53:07;;;;;;;30.12;21.90;;;;;;;16.25;77.20;101318.84;1741977;82;21053;-78
2021/09/08 05:55:33;;;;;;;37.25;23.90;;;;;;;16.34;77.00;101319.07;1695752;81;21098;-78
2021/09/08 05:57:59;;;;;;;37.98;24.40;;;;;;;16.49;76.88;101320.42;1748034;81;21669;-78
2021/09/08 06:00:25;;;;;;;36.90;24.30;;;;;;;16.62;76.71;101319.80;1736589;81;20981;-78
2021/09/08 06:02:51;;;;;;;32.05;23.30;;;;;;;16.72;76.62;101321.69;1731579;82;21002;-79
2021/09/08 06:05:18;;;;;;;36.53;23.83;;;;;;;16.86;76.46;101320.83;1725677;82;21016;-79
2021/09/08 06:07:44;;;;;;;36.88;21.62;;;;;;;16.97;76.23;101323.05;1721569;82;21022;-79
2021/09/08 06:10:10;;;;;;;34.53;23.42;;;;;;;16.95;75.99;101321.06;1721711;83;21058;-79
2021/09/08 06:12:36;;;;;;;33.13;22.67;;;;;;;16.94;75.84;101324.78;1721712;83;20998;-79
2021/09/08 06:15:03;;;;;;;28.98;21.95;;;;;;;17.07;75.74;101322.23;1721622;83;21022;-79
2021/09/08 06:17:29;;;;;;;33.85;22.25;;;;;;;17.15;75.55;101320.78;1721699;83;21030;-79
2021/09/08 06:19:55;;;;;;;32.70;24.15;;;;;;;17.19;75.38;101318.03;1721880;83;21019;-79
2021/09/08 06:22:21;;;;;;;32.53;21.87;;;;;;;17.28;75.26;101313.34;1743705;82;21112;-79
2021/09/08 06:24:47;;;;;;;32.55;21.55;;;;;;;17.52;75.08;101322.44;1749834;82;21010;-79
2021/09/08 06:27:13;;;;;;;28.83;22.25;;;;;;;17.72;74.87;101322.64;1750386;81;20912;-78
2021/09/08 06:29:39;;;;;;;31.20;22.10;;;;;;;17.82;74.64;101321.79;1743778;82;20965;-78
2021/09/08 06:32:06;;;;;;;31.68;22.40;;;;;;;17.90;74.46;101316.27;1710768;83;21061;-79
2021/09/08 06:34:32;;;;;;;29.98;21.60;;;;;;;17.97;74.29;101323.90;1720310;83;21817;-78
2021/09/08 06:36:58;;;;;;;34.08;22.20;;;;;;;18.06;74.07;101320.02;1723045;81;21475;-78
2021/09/08 06:39:24;;;;;;;32.58;22.10;;;;;;;18.20;73.91;101321.78;1692992;83;21499;-78
2021/09/08 06:41:51;;;;;;;35.55;22.67;;;;;;;18.28;73.65;101327.04;1677994;85;20996;-78
2021/09/08 06:44:17;;;;;;;31.85;22.37;;;;;;;18.32;73.46;101320.22;1725681;81;21098;-77
2021/09/08 06:46:43;;;;;;;35.50;22.67;;;;;;;18.46;73.23;101321.13;1749578;81;21491;-80
2021/09/08 06:49:10;;;;;;;28.92;21.90;;;;;;;18.72;73.13;101320.45;1762366;81;21018;-81
2021/09/08 06:51:35;;;;;;;28.20;22.02;;;;;;;18.92;72.87;101320.04;1737723;81;21007;-80
2021/09/08 06:54:01;;;;;;;40.43;22.65;;;;;;;18.98;72.58;101313.82;1723203;82;20928;-80
2021/09/08 06:56:27;;;;;;;33.98;23.55;;;;;;;19.01;72.35;101314.76;1721669;82;21029;-80
2021/09/08 06:58:54;;;;;;;33.70;22.82;;;;;;;19.23;72.23;101311.40;1703769;83;21760;-81
2021/09/08 07:01:20;;;;;;;30.48;23.65;;;;;;;19.31;71.87;101305.30;1719070;82;21419;-80
2021/09/08 07:03:46;;;;;;;30.02;21.75;;;;;;;19.42;71.66;101308.76;1727842;82;21473;-77
2021/09/08 07:06:11;;;;;;;29.85;21.05;;;;;;;19.66;71.43;101302.45;1725384;81;21727;-78
2021/09/08 07:08:37;;;;;;;33.48;23.45;;;;;;;19.81;71.16;101307.13;1723041;81;20888;-78
2021/09/08 07:11:03;;;;;;;31.12;22.40;;;;;;;19.96;70.96;101299.64;1720735;82;21131;-78
2021/09/08 07:13:29;;;;;;;27.85;20.90;;;;;;;20.24;70.73;101301.59;1716640;82;21005;-77
2021/09/08 07:15:55;;;;;;;30.12;20.25;;;;;;;20.42;70.33;101300.44;1723180;82;20915;-77
2021/09/08 07:18:21;;;;;;;26.48;20.60;;;;;;;20.39;70.11;101299.52;1722272;81;20922;-77
2021/09/08 07:20:47;;;;;;;25.65;18.82;;;;;;;20.31;69.82;101299.73;1719134;82;21014;-77
2021/09/08 07:23:13;;;;;;;25.60;20.12;;;;;;;20.41;69.62;101303.34;1714554;82;21189;-78
2021/09/08 07:25:39;;;;;;;30.12;20.43;;;;;;;20.43;69.30;101299.41;1733071;81;20970;-77
2021/09/08 07:28:05;;;;;;;25.10;19.95;;;;;;;20.62;69.12;101304.98;1727679;82;21006;-78
2021/09/08 07:30:32;;;;;;;26.20;19.90;;;;;;;20.70;68.80;101299.30;1724708;82;21047;-77
2021/09/08 07:32:58;;;;;;;28.57;20.68;;;;;;;20.80;68.50;101302.39;1720183;82;21009;-78
2021/09/08 07:35:24;;;;;;;27.22;20.05;;;;;;;20.87;68.29;101307.27;1721848;82;21476;-78
2021/09/08 07:37:50;;;;;;;32.17;20.62;;;;;;;21.03;68.13;101308.67;1705554;84;21004;-78
2021/09/08 07:40:18;;;;;;;29.80;21.50;;;;;;;21.06;67.75;101303.64;1705902;84;21075;-78
2021/09/08 07:42:44;;;;;;;31.93;21.05;;;;;;;20.92;67.41;101304.75;1705523;84;21060;-78
2021/09/08 07:45:10;;;;;;;24.60;19.98;;;;;;;21.03;67.29;101298.66;1705663;84;20881;-78
2021/09/08 07:47:37;;;;;;;25.57;18.87;;;;;;;21.16;66.98;101298.61;1705684;84;21719;-78
2021/09/08 07:50:03;;;;;;;27.50;20.30;;;;;;;21.11;66.71;101303.84;1705374;84;21012;-78
2021/09/08 07:52:29;;;;;;;30.48;20.43;;;;;;;21.03;66.42;101298.66;1705621;84;21072;-78
2021/09/08 07:54:55;;;;;;;26.85;19.32;;;;;;;21.03;66.25;101298.66;1705537;84;20897;-78
2021/09/08 07:57:21;;;;;;;27.17;19.82;;;;;;;21.14;66.08;101299.88;1705780;84;21334;-78
2021/09/08 07:59:49;;;;;;;29.67;19.90;;;;;;;21.22;65.79;101301.80;1699002;84;21536;-77
2021/09/08 08:02:14;;;;;;;26.42;18.95;;;;;;;21.24;65.57;101302.44;1693117;84;20988;-78
2021/09/08 08:04:40;;;;;;;23.18;18.70;;;;;;;21.34;65.35;101301.42;1693244;84;21083;-78
2021/09/08 08:07:06;;;;;;;26.25;18.67;;;;;;;21.41;65.09;101302.22;1693265;84;21047;-78
2021/09/08 08:09:32;;;;;;;25.65;18.25;;;;;;;21.35;64.72;101303.09;1693362;84;21720;-78
2021/09/08 08:11:58;;;;;;;30.48;19.40;;;;;;;21.28;64.45;101300.95;1693472;84;21591;-78
2021/09/08 08:14:24;;;;;;;25.25;18.25;;;;;;;21.51;64.33;101298.17;1693334;84;20921;-78
2021/09/08 08:16:51;;;;;;;24.12;18.42;;;;;;;21.65;63.99;101301.09;1693224;83;21064;-78
2021/09/08 08:19:17;;;;;;;27.55;19.77;;;;;;;21.59;63.65;101307.42;1693528;84;21060;-78
2021/09/08 08:21:43;;;;;;;24.65;19.00;;;;;;;21.66;63.43;101306.84;1693036;84;20886;-78
2021/09/08 08:24:09;;;;;;;27.90;19.45;;;;;;;21.67;63.07;101306.64;1693259;84;21706;-78
2021/09/08 08:26:35;;;;;;;26.17;19.52;;;;;;;21.73;62.88;101301.67;1693185;84;20997;-78
2021/09/08 08:29:01;;;;;;;28.67;18.55;;;;;;;21.87;62.68;101305.11;1693142;84;21016;-78
2021/09/08 08:31:27;;;;;;;25.05;18.87;;;;;;;22.02;62.46;101308.36;1693374;84;21016;-78
2021/09/08 08:33:53;;;;;;;24.67;18.35;;;;;;;22.20;62.22;101298.86;1693333;84;20898;-78
2021/09/08 08:36:19;;;;;;;28.47;19.00;;;;;;;22.28;61.99;101301.30;1693400;84;21957;-78
2021/09/08 08:38:45;;;;;;;22.13;16.65;;;;;;;22.41;61.86;101301.16;1693138;84;21492;-78
2021/09/08 08:41:11;;;;;;;23.07;18.00;;;;;;;22.60;61.63;101296.56;1693309;84;21024;-78
2021/09/08 08:43:38;;;;;;;28.65;18.80;;;;;;;22.80;61.47;101299.06;1693230;84;21528;-78
2021/09/08 08:46:04;;;;;;;28.77;18.10;;;;;;;22.74;61.01;101297.27;1707635;84;21001;-78
2021/09/08 08:48:31;;;;;;;30.52;17.98;;;;;;;22.69;60.79;101297.13;1707991;82;21822;-78
2021/09/08 08:50:57;;;;;;;27.58;17.30;;;;;;;22.84;60.65;101292.95;1683861;84;21486;-78
2021/09/08 08:53:23;;;;;;;26.40;18.07;;;;;;;22.83;60.31;101297.27;1708106;84;20953;-78
2021/09/08 08:55:49;;;;;;;26.77;16.90;;;;;;;22.70;59.87;101290.61;1707733;84;21460;-78
2021/09/08 08:58:15;;;;;;;25.48;17.07;;;;;;;22.77;59.70;101292.72;1708145;82;20970;-78
2021/09/08 09:00:42;;;;;;;23.95;16.30;;;;;;;22.90;59.43;101287.94;1723700;83;21886;-78
2021/09/08 09:03:08;;;;;;;22.22;14.85;;;;;;;22.89;59.18;101293.63;1729512;83;21006;-78
2021/09/08 09:05:39;;;;;;;22.70;15.28;;;;;;;22.89;59.05;101291.74;1729401;82;21018;-78
2021/09/08 09:08:09;;;;;;;21.10;15.45;;;;;;;22.87;58.70;101288.93;1729599;83;21057;-78
2021/09/08 09:10:39;;;;;;;22.22;14.87;;;;;;;22.75;58.49;101285.33;1729609;82;21014;-78
2021/09/08 09:13:05;;;;;;;20.20;14.95;;;;;;;22.73;58.04;101287.47;1729327;82;21757;-78
2021/09/08 09:15:31;;;;;;;20.17;13.88;;;;;;;22.68;57.77;101287.30;1729608;83;20943;-78
2021/09/08 09:17:57;;;;;;;19.42;14.55;;;;;;;22.69;57.55;101286.25;1729196;83;20998;-78
2021/09/08 09:20:35;;;;;;;25.43;13.45;;;;;;;22.82;57.38;101286.08;1729507;82;20887;-78
2021/09/08 09:22:59;;;;;;;21.25;14.95;;;;;;;22.94;57.24;101292.39;1727739;82;21456;-78
2021/09/08 09:25:28;;;;;;;24.35;16.65;;;;;;;22.86;56.87;101288.65;1729606;83;21956;-78
2021/09/08 09:27:57;;;;;;;23.95;15.53;;;;;;;22.77;56.76;101284.04;1733161;81;21066;-78
2021/09/08 09:30:28;;;;;;;22.87;15.43;;;;;;;22.97;56.75;101286.52;1758450;80;21026;-79
2021/09/08 09:32:57;;;;;;;22.22;15.48;;;;;;;23.00;56.59;101286.06;1740505;81;21095;-78
2021/09/08 09:35:26;;;;;;;19.30;14.93;;;;;;;23.09;56.56;101281.11;1753247;80;20895;-78
2021/09/08 09:37:57;;;;;;;;;;;;;;;23.27;56.45;101278.34;1756317;81;21827;-78
2021/09/08 09:40:26;;;;;;;22.13;16.57;;;;;;;23.34;56.27;101271.73;1759524;81;20153;-78
2021/09/08 09:42:52;;;;;;;19.42;13.32;;;;;;;23.44;56.28;101266.28;1756951;80;20993;-78
2021/09/08 09:45:18;;;;;;;24.52;15.75;;;;;;;23.58;56.09;101266.37;1751486;81;21004;-79
2021/09/08 09:47:46;;;;;;;17.65;14.03;;;;;;;23.45;55.86;101256.53;1750498;80;21581;-78
2021/09/08 09:50:17;;;;;;;18.70;13.08;;;;;;;23.49;55.74;101260.97;1741276;81;21979;-78
2021/09/08 09:52:48;;;;;;;19.40;14.38;;;;;;;23.29;55.45;101260.70;1750599;79;21448;-78
2021/09/08 09:55:14;;;;;;;18.48;14.35;;;;;;;23.30;55.33;101258.81;1759504;81;21577;-78
2021/09/08 09:57:42;;;;;;;16.07;13.68;;;;;;;23.27;55.20;101251.95;1754057;80;21273;-78
2021/09/08 10:00:09;;;;;;;18.75;13.83;;;;;;;23.18;55.06;101246.55;1758558;80;20981;-78
2021/09/08 10:02:35;;;;;;;19.25;14.28;;;;;;;23.24;55.04;101244.25;1754274;80;21873;-78
2021/09/08 10:05:03;;;;;;;24.00;15.20;;;;;;;23.30;54.88;101241.95;1728325;80;20951;-78
2021/09/08 10:07:29;;;;;;;21.37;14.53;;;;;;;23.33;54.80;101236.04;1728846;80;20976;-78
2021/09/08 10:10:00;;;;;;;21.52;14.40;;;;;;;23.30;54.67;101232.42;1727175;82;21588;-78
2021/09/08 10:12:40;;;;;;;23.62;14.83;;;;;;;23.18;54.49;101232.95;1733012;82;21031;-78
2021/09/08 10:15:08;;;;;;;22.65;14.93;;;;;;;23.23;54.54;101234.42;1725537;82;22487;-78
2021/09/08 10:17:45;;;;;;;19.57;14.43;;;;;;;23.31;54.32;101241.43;1728307;82;20984;-72
2021/09/08 10:20:18;;;;;;;20.62;15.50;;;;;;;23.23;54.28;101228.98;1732146;80;21144;-72
2021/09/08 10:22:44;;;;;;;22.93;14.70;;;;;;;23.28;54.26;101237.29;1701092;82;21013;-72
2021/09/08 10:25:15;;;;;;;19.35;13.53;;;;;;;23.16;53.99;101239.13;1734852;82;21505;-71
2021/09/08 10:27:41;;;;;;;18.75;14.68;;;;;;;23.15;54.07;101229.30;1737657;82;21838;-72
2021/09/08 10:30:09;;;;;;;20.50;14.00;;;;;;;23.26;54.04;101228.51;1737036;82;20947;-72
2021/09/08 10:32:35;;;;;;;21.68;14.18;;;;;;;23.11;53.81;101224.05;1735578;82;21045;-72
2021/09/08 10:35:16;;;;;;;15.28;12.68;;;;;;;23.16;53.86;101222.80;1732497;82;21418;-72
2021/09/08 10:37:46;;;;;;;16.57;12.18;;;;;;;23.37;53.87;101218.18;1731362;82;21083;-72
2021/09/08 10:40:14;;;;;;;15.20;12.55;;;;;;;23.48;53.67;101216.57;1730135;80;21780;-72
2021/09/08 10:42:53;;;;;;;18.20;12.65;;;;;;;23.59;53.56;101212.20;1729090;82;20989;-72
2021/09/08 10:45:28;;;;;;;23.77;12.65;;;;;;;23.59;53.42;101206.23;1728288;82;20922;-71
2021/09/08 10:47:56;;;;;;;18.15;12.75;;;;;;;23.66;53.36;101200.66;1729457;82;21052;-71
2021/09/08 10:50:44;;;;;;;18.57;14.03;;;;;;;23.67;53.28;101200.97;1730989;82;21365;-72
2021/09/08 10:53:24;;;;;;;19.35;12.63;;;;;;;23.76;53.23;101204.98;1737822;82;21819;-72
2021/09/08 10:55:52;;;;;;;14.75;11.78;;;;;;;23.83;53.02;101196.16;1726016;82;20977;-72
2021/09/08 10:58:18;;;;;;;14.65;12.20;;;;;;;23.83;52.91;101194.27;1728604;82;21021;-72
2021/09/08 11:00:46;;;;;;;17.05;11.40;;;;;;;23.87;52.83;101197.34;1724793;82;21008;-71
2021/09/08 11:03:20;;;;;;;15.63;11.65;;;;;;;23.75;52.56;101190.53;1716119;81;21059;-78
2021/09/08 11:05:54;;;;;;;18.35;12.28;;;;;;;23.67;52.48;101187.35;1735466;81;21936;-77
2021/09/08 11:08:32;;;;;;;17.82;11.75;;;;;;;23.66;52.19;101197.94;1715549;83;20921;-77